sensor_id;sensor_type;location;lat;lon;timestamp;pressure;altitude;pressure_sealevel;temperature;humidity
19751;BME280;4663;49.120;9.730;2023-06-04T00:00:55;98082.28;;;14.72;68.26
19751;BME280;4663;49.120;9.730;2023-06-04T00:03:22;98074.06;;;14.35;66.14
19751;BME280;4663;49.120;9.730;2023-06-04T00:05:48;98085.81;;;14.73;68.20
19751;BME280;4663;49.120;9.730;2023-06-04T00:08:13;98069.19;;;14.31;67.79
19751;BME280;4663;49.120;9.730;2023-06-04T00:10:38;98090.47;;;14.10;70.29
19751;BME280;4663;49.120;9.730;2023-06-04T00:13:05;98079.88;;;14.24;69.03
19751;BME280;4663;49.120;9.730;2023-06-04T00:15:30;98075.38;;;14.39;69.39
19751;BME280;4663;49.120;9.730;2023-06-04T00:17:56;98076.41;;;14.38;70.26
19751;BME280;4663;49.120;9.730;2023-06-04T00:20:22;98083.19;;;14.49;70.00
19751;BME280;4663;49.120;9.730;2023-06-04T00:22:47;98081.34;;;14.11;71.50
19751;BME280;4663;49.120;9.730;2023-06-04T00:25:12;98083.75;;;14.06;71.88
19751;BME280;4663;49.120;9.730;2023-06-04T00:27:38;98082.66;;;14.16;70.60
19751;BME280;4663;49.120;9.730;2023-06-04T00:30:04;98084.44;;;14.00;71.43
19751;BME280;4663;49.120;9.730;2023-06-04T00:32:30;98075.56;;;13.91;70.71
19751;BME280;4663;49.120;9.730;2023-06-04T00:34:56;98076.41;;;13.92;70.92
19751;BME280;4663;49.120;9.730;2023-06-04T00:37:23;98059.50;;;14.21;68.62
19751;BME280;4663;49.120;9.730;2023-06-04T00:39:49;98084.97;;;13.95;70.72
19751;BME280;4663;49.120;9.730;2023-06-04T00:42:15;98077.56;;;13.97;70.65
19751;BME280;4663;49.120;9.730;2023-06-04T00:44:40;98079.88;;;13.77;70.01
19751;BME280;4663;49.120;9.730;2023-06-04T00:47:15;98085.66;;;13.74;69.88
19751;BME280;4663;49.120;9.730;2023-06-04T00:49:41;98087.09;;;13.85;69.35
19751;BME280;4663;49.120;9.730;2023-06-04T00:52:12;98084.34;;;13.70;69.09
19751;BME280;4663;49.120;9.730;2023-06-04T00:54:38;98089.16;;;13.51;69.45
19751;BME280;4663;49.120;9.730;2023-06-04T00:57:04;98085.41;;;13.60;69.39
19751;BME280;4663;49.120;9.730;2023-06-04T00:59:31;98088.25;;;13.59;70.36
19751;BME280;4663;49.120;9.730;2023-06-04T01:02:08;98084.88;;;13.65;69.40
19751;BME280;4663;49.120;9.730;2023-06-04T01:04:50;98082.06;;;13.58;69.65
19751;BME280;4663;49.120;9.730;2023-06-04T01:07:19;98095.66;;;13.33;71.30
19751;BME280;4663;49.120;9.730;2023-06-04T01:09:45;98092.56;;;13.45;71.47
19751;BME280;4663;49.120;9.730;2023-06-04T01:12:11;98091.69;;;13.53;69.86
19751;BME280;4663;49.120;9.730;2023-06-04T01:14:37;98092.22;;;13.71;69.28
19751;BME280;4663;49.120;9.730;2023-06-04T01:17:32;98100.91;;;13.58;68.51
19751;BME280;4663;49.120;9.730;2023-06-04T01:20:43;98102.53;;;13.68;68.75
19751;BME280;4663;49.120;9.730;2023-06-04T01:23:51;98102.44;;;13.21;70.47
19751;BME280;4663;49.120;9.730;2023-06-04T01:26:25;98110.56;;;13.13;72.58
19751;BME280;4663;49.120;9.730;2023-06-04T01:28:52;98102.13;;;13.47;71.62
19751;BME280;4663;49.120;9.730;2023-06-04T01:31:18;98101.31;;;13.47;70.70
19751;BME280;4663;49.120;9.730;2023-06-04T01:33:54;98102.59;;;13.59;69.78
19751;BME280;4663;49.120;9.730;2023-06-04T01:36:21;98105.94;;;13.30;70.69
19751;BME280;4663;49.120;9.730;2023-06-04T01:38:46;98101.00;;;13.42;69.23
19751;BME280;4663;49.120;9.730;2023-06-04T01:41:12;98096.50;;;13.34;68.81
19751;BME280;4663;49.120;9.730;2023-06-04T01:43:37;98092.56;;;13.45;67.61
19751;BME280;4663;49.120;9.730;2023-06-04T01:46:03;98099.16;;;13.42;68.05
19751;BME280;4663;49.120;9.730;2023-06-04T01:48:29;98094.50;;;13.28;68.28
19751;BME280;4663;49.120;9.730;2023-06-04T01:50:54;98101.84;;;12.94;69.93
19751;BME280;4663;49.120;9.730;2023-06-04T01:53:20;98100.53;;;12.98;69.14
19751;BME280;4663;49.120;9.730;2023-06-04T01:55:45;98099.94;;;12.63;70.76
19751;BME280;4663;49.120;9.730;2023-06-04T01:58:14;98103.88;;;12.92;69.81
19751;BME280;4663;49.120;9.730;2023-06-04T02:00:43;98096.16;;;12.97;69.50
19751;BME280;4663;49.120;9.730;2023-06-04T02:03:08;98091.56;;;13.06;69.82
19751;BME280;4663;49.120;9.730;2023-06-04T02:05:34;98092.25;;;12.91;69.24
19751;BME280;4663;49.120;9.730;2023-06-04T02:08:00;98094.78;;;13.01;69.49
19751;BME280;4663;49.120;9.730;2023-06-04T02:10:27;98087.91;;;12.98;68.21
19751;BME280;4663;49.120;9.730;2023-06-04T02:15:22;98087.91;;;12.98;66.15
19751;BME280;4663;49.120;9.730;2023-06-04T02:17:48;98089.00;;;13.13;66.34
19751;BME280;4663;49.120;9.730;2023-06-04T02:20:15;98086.06;;;12.91;65.32
19751;BME280;4663;49.120;9.730;2023-06-04T02:22:41;98088.25;;;12.87;66.47
19751;BME280;4663;49.120;9.730;2023-06-04T02:25:07;98096.69;;;12.67;67.37
19751;BME280;4663;49.120;9.730;2023-06-04T02:27:34;98110.03;;;12.52;68.93
19751;BME280;4663;49.120;9.730;2023-06-04T02:30:00;98113.75;;;12.51;68.84
19751;BME280;4663;49.120;9.730;2023-06-04T02:32:25;98119.75;;;12.62;70.34
19751;BME280;4663;49.120;9.730;2023-06-04T02:34:51;98112.69;;;12.61;69.72
19751;BME280;4663;49.120;9.730;2023-06-04T02:37:16;98098.91;;;12.64;67.96
19751;BME280;4663;49.120;9.730;2023-06-04T02:39:41;98108.34;;;12.51;68.57
19751;BME280;4663;49.120;9.730;2023-06-04T02:42:07;98115.25;;;12.54;69.08
19751;BME280;4663;49.120;9.730;2023-06-04T02:44:32;98110.72;;;12.29;70.19
19751;BME280;4663;49.120;9.730;2023-06-04T02:46:58;98110.56;;;12.06;68.95
19751;BME280;4663;49.120;9.730;2023-06-04T02:49:23;98112.38;;;12.30;69.54
19751;BME280;4663;49.120;9.730;2023-06-04T02:51:49;98109.91;;;12.29;69.55
19751;BME280;4663;49.120;9.730;2023-06-04T02:54:15;98104.97;;;12.49;68.17
19751;BME280;4663;49.120;9.730;2023-06-04T02:56:40;98107.72;;;12.24;68.83
19751;BME280;4663;49.120;9.730;2023-06-04T02:59:05;98114.09;;;12.31;68.77
19751;BME280;4663;49.120;9.730;2023-06-04T03:01:34;98112.88;;;12.51;68.88
19751;BME280;4663;49.120;9.730;2023-06-04T03:04:00;98112.72;;;12.44;68.78
19751;BME280;4663;49.120;9.730;2023-06-04T03:06:29;98116.06;;;12.46;68.82
19751;BME280;4663;49.120;9.730;2023-06-04T03:08:54;98120.13;;;12.25;70.91
19751;BME280;4663;49.120;9.730;2023-06-04T03:11:21;98120.47;;;12.30;70.43
19751;BME280;4663;49.120;9.730;2023-06-04T03:13:47;98119.97;;;12.10;70.19
19751;BME280;4663;49.120;9.730;2023-06-04T03:16:13;98109.38;;;12.17;69.54
19751;BME280;4663;49.120;9.730;2023-06-04T03:18:42;98116.78;;;12.23;68.89
19751;BME280;4663;49.120;9.730;2023-06-04T03:21:08;98118.78;;;12.13;70.74
19751;BME280;4663;49.120;9.730;2023-06-04T03:23:34;98115.28;;;12.20;69.04
19751;BME280;4663;49.120;9.730;2023-06-04T03:26:04;98125.03;;;12.13;70.30
19751;BME280;4663;49.120;9.730;2023-06-04T03:28:31;98107.34;;;12.02;68.12
19751;BME280;4663;49.120;9.730;2023-06-04T03:30:56;98122.13;;;11.90;70.18
19751;BME280;4663;49.120;9.730;2023-06-04T03:33:22;98120.94;;;11.84;69.80
19751;BME280;4663;49.120;9.730;2023-06-04T03:35:47;98126.09;;;11.69;71.87
19751;BME280;4663;49.120;9.730;2023-06-04T03:38:14;98123.72;;;11.57;72.45
19751;BME280;4663;49.120;9.730;2023-06-04T03:40:39;98132.22;;;11.88;71.77
19751;BME280;4663;49.120;9.730;2023-06-04T03:43:05;98126.94;;;11.61;71.29
19751;BME280;4663;49.120;9.730;2023-06-04T03:45:30;98134.41;;;11.92;71.66
19751;BME280;4663;49.120;9.730;2023-06-04T03:47:56;98137.25;;;11.82;71.72
19751;BME280;4663;49.120;9.730;2023-06-04T03:50:21;98140.97;;;11.98;71.74
19751;BME280;4663;49.120;9.730;2023-06-04T03:52:50;98148.38;;;12.13;71.82
19751;BME280;4663;49.120;9.730;2023-06-04T03:55:15;98148.34;;;12.46;71.76
19751;BME280;4663;49.120;9.730;2023-06-04T03:57:41;98134.69;;;12.97;69.80
19751;BME280;4663;49.120;9.730;2023-06-04T04:00:08;98141.81;;;13.30;70.00
19751;BME280;4663;49.120;9.730;2023-06-04T04:02:37;98142.84;;;14.16;68.36
19751;BME280;4663;49.120;9.730;2023-06-04T04:05:02;98140.78;;;14.42;67.54
19751;BME280;4663;49.120;9.730;2023-06-04T04:07:28;98134.50;;;14.64;65.55
19751;BME280;4663;49.120;9.730;2023-06-04T04:09:53;98131.50;;;14.59;65.62
19751;BME280;4663;49.120;9.730;2023-06-04T04:12:18;98138.41;;;14.62;65.89
19751;BME280;4663;49.120;9.730;2023-06-04T04:14:44;98141.75;;;15.18;66.42
19751;BME280;4663;49.120;9.730;2023-06-04T04:17:09;98150.47;;;15.20;66.34
19751;BME280;4663;49.120;9.730;2023-06-04T04:19:35;98152.41;;;14.96;67.42
19751;BME280;4663;49.120;9.730;2023-06-04T04:22:00;98150.56;;;14.81;66.75
19751;BME280;4663;49.120;9.730;2023-06-04T04:24:27;98158.34;;;13.91;69.26
19751;BME280;4663;49.120;9.730;2023-06-04T04:26:53;98164.31;;;14.09;70.05
19751;BME280;4663;49.120;9.730;2023-06-04T04:29:22;98167.03;;;14.48;69.26
19751;BME280;4663;49.120;9.730;2023-06-04T04:31:50;98162.25;;;14.35;68.79
19751;BME280;4663;49.120;9.730;2023-06-04T04:34:15;98159.47;;;13.96;69.76
19751;BME280;4663;49.120;9.730;2023-06-04T04:36:41;98171.75;;;14.07;72.09
19751;BME280;4663;49.120;9.730;2023-06-04T04:39:06;98152.09;;;14.22;68.56
19751;BME280;4663;49.120;9.730;2023-06-04T04:41:31;98159.78;;;14.25;69.15
19751;BME280;4663;49.120;9.730;2023-06-04T04:44:03;98169.16;;;14.14;70.19
19751;BME280;4663;49.120;9.730;2023-06-04T04:46:29;98163.88;;;14.98;68.92
19751;BME280;4663;49.120;9.730;2023-06-04T04:48:55;98157.81;;;14.96;67.76
19751;BME280;4663;49.120;9.730;2023-06-04T04:51:21;98157.19;;;15.24;67.32
19751;BME280;4663;49.120;9.730;2023-06-04T04:53:47;98175.31;;;14.85;69.41
19751;BME280;4663;49.120;9.730;2023-06-04T04:56:12;98176.78;;;14.87;69.26
19751;BME280;4663;49.120;9.730;2023-06-04T04:58:38;98171.91;;;14.52;68.81
19751;BME280;4663;49.120;9.730;2023-06-04T05:01:03;98169.03;;;14.54;68.59
19751;BME280;4663;49.120;9.730;2023-06-04T05:03:29;98176.53;;;14.44;69.83
19751;BME280;4663;49.120;9.730;2023-06-04T05:05:54;98175.31;;;15.00;69.11
19751;BME280;4663;49.120;9.730;2023-06-04T05:08:20;98165.84;;;15.34;66.66
19751;BME280;4663;49.120;9.730;2023-06-04T05:10:45;98180.94;;;15.44;66.54
19751;BME280;4663;49.120;9.730;2023-06-04T05:13:11;98168.94;;;15.83;65.22
19751;BME280;4663;49.120;9.730;2023-06-04T05:15:36;98181.59;;;15.31;65.13
19751;BME280;4663;49.120;9.730;2023-06-04T05:18:02;98166.56;;;14.98;64.93
19751;BME280;4663;49.120;9.730;2023-06-04T05:20:29;98172.16;;;14.43;64.94
19751;BME280;4663;49.120;9.730;2023-06-04T05:22:55;98183.22;;;14.48;67.51
19751;BME280;4663;49.120;9.730;2023-06-04T05:25:20;98167.88;;;14.48;65.53
19751;BME280;4663;49.120;9.730;2023-06-04T05:27:46;98182.69;;;14.91;66.43
19751;BME280;4663;49.120;9.730;2023-06-04T05:30:14;98178.50;;;16.01;65.37
19751;BME280;4663;49.120;9.730;2023-06-04T05:32:40;98184.63;;;16.53;63.19
19751;BME280;4663;49.120;9.730;2023-06-04T05:35:06;98180.84;;;15.89;64.20
19751;BME280;4663;49.120;9.730;2023-06-04T05:37:33;98189.22;;;15.94;63.96
19751;BME280;4663;49.120;9.730;2023-06-04T05:39:59;98187.16;;;16.55;63.21
19751;BME280;4663;49.120;9.730;2023-06-04T05:42:25;98193.53;;;17.26;63.21
19751;BME280;4663;49.120;9.730;2023-06-04T05:44:51;98193.03;;;17.16;61.91
19751;BME280;4663;49.120;9.730;2023-06-04T05:47:17;98188.84;;;17.91;61.31
19751;BME280;4663;49.120;9.730;2023-06-04T05:49:43;98198.16;;;17.39;61.67
19751;BME280;4663;49.120;9.730;2023-06-04T05:52:09;98163.72;;;17.82;58.28
19751;BME280;4663;49.120;9.730;2023-06-04T05:54:35;98183.06;;;18.21;59.25
19751;BME280;4663;49.120;9.730;2023-06-04T05:57:02;98169.72;;;18.33;56.44
19751;BME280;4663;49.120;9.730;2023-06-04T05:59:27;98163.03;;;19.76;54.13
19751;BME280;4663;49.120;9.730;2023-06-04T06:01:53;98151.09;;;19.77;52.11
19751;BME280;4663;49.120;9.730;2023-06-04T06:04:18;98154.06;;;19.55;52.42
19751;BME280;4663;49.120;9.730;2023-06-04T06:06:44;98181.75;;;20.37;53.21
19751;BME280;4663;49.120;9.730;2023-06-04T06:09:12;98175.09;;;20.84;52.30
19751;BME280;4663;49.120;9.730;2023-06-04T06:11:37;98144.81;;;19.76;50.85
19751;BME280;4663;49.120;9.730;2023-06-04T06:14:03;98170.84;;;19.45;53.48
19751;BME280;4663;49.120;9.730;2023-06-04T06:16:28;98171.50;;;19.93;52.16
19751;BME280;4663;49.120;9.730;2023-06-04T06:18:53;98177.88;;;20.51;51.42
19751;BME280;4663;49.120;9.730;2023-06-04T06:21:19;98173.09;;;20.72;51.31
19751;BME280;4663;49.120;9.730;2023-06-04T06:23:44;98158.16;;;19.85;51.28
19751;BME280;4663;49.120;9.730;2023-06-04T06:26:10;98160.78;;;20.05;50.35
19751;BME280;4663;49.120;9.730;2023-06-04T06:28:35;98185.00;;;21.59;50.38
19751;BME280;4663;49.120;9.730;2023-06-04T06:31:01;98180.81;;;22.80;48.70
19751;BME280;4663;49.120;9.730;2023-06-04T06:33:27;98174.16;;;22.21;49.18
19751;BME280;4663;49.120;9.730;2023-06-04T06:35:52;98183.53;;;21.45;49.95
19751;BME280;4663;49.120;9.730;2023-06-04T06:38:18;98181.97;;;21.12;50.20
19751;BME280;4663;49.120;9.730;2023-06-04T06:40:43;98191.31;;;22.40;49.88
19751;BME280;4663;49.120;9.730;2023-06-04T06:43:10;98163.97;;;21.97;48.93
19751;BME280;4663;49.120;9.730;2023-06-04T06:45:36;98183.19;;;21.91;49.76
19751;BME280;4663;49.120;9.730;2023-06-04T06:48:01;98183.69;;;21.81;50.08
19751;BME280;4663;49.120;9.730;2023-06-04T06:50:27;98177.41;;;21.99;49.23
19751;BME280;4663;49.120;9.730;2023-06-04T06:52:52;98191.56;;;22.08;50.08
19751;BME280;4663;49.120;9.730;2023-06-04T06:55:17;98192.00;;;21.55;50.40
19751;BME280;4663;49.120;9.730;2023-06-04T06:57:43;98187.72;;;21.78;49.63
19751;BME280;4663;49.120;9.730;2023-06-04T07:00:09;98171.44;;;21.90;48.76
19751;BME280;4663;49.120;9.730;2023-06-04T07:02:35;98189.28;;;23.02;48.81
19751;BME280;4663;49.120;9.730;2023-06-04T07:05:00;98190.28;;;23.73;48.16
19751;BME280;4663;49.120;9.730;2023-06-04T07:07:26;98162.44;;;24.69;45.43
19751;BME280;4663;49.120;9.730;2023-06-04T07:09:51;98169.56;;;25.04;46.28
19751;BME280;4663;49.120;9.730;2023-06-04T07:12:17;98145.78;;;23.66;45.76
19751;BME280;4663;49.120;9.730;2023-06-04T07:14:43;98165.47;;;23.38;47.50
19751;BME280;4663;49.120;9.730;2023-06-04T07:17:08;98190.25;;;24.60;47.96
19751;BME280;4663;49.120;9.730;2023-06-04T07:19:33;98184.81;;;24.31;47.90
19751;BME280;4663;49.120;9.730;2023-06-04T07:21:59;98164.63;;;25.90;44.81
19751;BME280;4663;49.120;9.730;2023-06-04T07:24:24;98146.53;;;23.90;45.76
19751;BME280;4663;49.120;9.730;2023-06-04T07:26:50;98170.66;;;25.65;45.77
19751;BME280;4663;49.120;9.730;2023-06-04T07:29:15;98166.78;;;25.88;44.50
19751;BME280;4663;49.120;9.730;2023-06-04T07:31:41;98173.88;;;25.84;45.16
19751;BME280;4663;49.120;9.730;2023-06-04T07:34:06;98164.25;;;24.97;46.00
19751;BME280;4663;49.120;9.730;2023-06-04T07:36:32;98170.06;;;24.66;46.59
19751;BME280;4663;49.120;9.730;2023-06-04T07:38:58;98141.88;;;24.54;45.31
19751;BME280;4663;49.120;9.730;2023-06-04T07:41:24;98174.22;;;25.65;46.09
19751;BME280;4663;49.120;9.730;2023-06-04T07:43:51;98165.91;;;24.81;46.27
19751;BME280;4663;49.120;9.730;2023-06-04T07:46:16;98166.66;;;24.59;46.43
19751;BME280;4663;49.120;9.730;2023-06-04T07:48:44;98166.41;;;24.44;46.85
19751;BME280;4663;49.120;9.730;2023-06-04T07:51:09;98161.97;;;25.96;44.42
19751;BME280;4663;49.120;9.730;2023-06-04T07:53:36;98164.75;;;26.94;43.95
19751;BME280;4663;49.120;9.730;2023-06-04T07:56:03;98149.31;;;25.94;43.99
19751;BME280;4663;49.120;9.730;2023-06-04T07:58:29;98146.75;;;25.65;43.93
19751;BME280;4663;49.120;9.730;2023-06-04T08:00:55;98178.91;;;25.65;45.98
19751;BME280;4663;49.120;9.730;2023-06-04T08:03:21;98159.09;;;26.73;44.32
19751;BME280;4663;49.120;9.730;2023-06-04T08:05:46;98165.47;;;25.68;45.15
19751;BME280;4663;49.120;9.730;2023-06-04T08:08:11;98128.94;;;25.23;43.73
19751;BME280;4663;49.120;9.730;2023-06-04T08:10:39;98154.94;;;24.81;45.53
19751;BME280;4663;49.120;9.730;2023-06-04T08:13:04;98153.66;;;25.46;45.28
19751;BME280;4663;49.120;9.730;2023-06-04T08:15:30;98155.44;;;24.78;46.20
19751;BME280;4663;49.120;9.730;2023-06-04T08:17:56;98173.50;;;25.13;46.88
19751;BME280;4663;49.120;9.730;2023-06-04T08:20:21;98168.84;;;26.91;44.68
19751;BME280;4663;49.120;9.730;2023-06-04T08:22:47;98160.59;;;26.53;44.95
19751;BME280;4663;49.120;9.730;2023-06-04T08:25:12;98137.16;;;25.90;43.79
19751;BME280;4663;49.120;9.730;2023-06-04T08:27:39;98168.00;;;26.20;45.89
19751;BME280;4663;49.120;9.730;2023-06-04T08:30:05;98156.41;;;25.90;44.88
19751;BME280;4663;49.120;9.730;2023-06-04T08:32:31;98137.03;;;25.80;43.87
19751;BME280;4663;49.120;9.730;2023-06-04T08:34:56;98170.03;;;26.35;44.93
19751;BME280;4663;49.120;9.730;2023-06-04T08:37:21;98188.69;;;27.31;45.41
19751;BME280;4663;49.120;9.730;2023-06-04T08:39:50;98116.09;;;26.29;42.75
19751;BME280;4663;49.120;9.730;2023-06-04T08:42:22;98161.44;;;25.99;44.95
19751;BME280;4663;49.120;9.730;2023-06-04T08:44:50;98146.09;;;26.03;43.02
19751;BME280;4663;49.120;9.730;2023-06-04T08:47:19;98141.47;;;25.59;42.56
19751;BME280;4663;49.120;9.730;2023-06-04T08:49:48;98182.72;;;26.09;45.32
19751;BME280;4663;49.120;9.730;2023-06-04T08:52:14;98172.31;;;27.73;43.22
19751;BME280;4663;49.120;9.730;2023-06-04T08:54:40;98146.06;;;26.58;42.28
19751;BME280;4663;49.120;9.730;2023-06-04T08:57:06;98142.31;;;25.59;43.53
19751;BME280;4663;49.120;9.730;2023-06-04T08:59:32;98161.25;;;25.83;43.41
19751;BME280;4663;49.120;9.730;2023-06-04T09:01:58;98154.34;;;26.03;42.92
19751;BME280;4663;49.120;9.730;2023-06-04T09:04:24;98129.50;;;25.92;41.41
19751;BME280;4663;49.120;9.730;2023-06-04T09:06:50;98145.03;;;25.81;42.57
19751;BME280;4663;49.120;9.730;2023-06-04T09:09:17;98148.50;;;25.27;42.90
19751;BME280;4663;49.120;9.730;2023-06-04T09:11:51;98122.91;;;25.43;41.69
19751;BME280;4663;49.120;9.730;2023-06-04T09:14:17;98156.03;;;26.09;43.08
19751;BME280;4663;49.120;9.730;2023-06-04T09:19:09;98150.19;;;25.78;42.17
19751;BME280;4663;49.120;9.730;2023-06-04T09:21:58;98124.72;;;25.82;40.45
19751;BME280;4663;49.120;9.730;2023-06-04T09:24:25;98106.94;;;25.40;40.31
19751;BME280;4663;49.120;9.730;2023-06-04T09:26:51;98127.06;;;25.74;41.09
19751;BME280;4663;49.120;9.730;2023-06-04T09:29:17;98144.28;;;26.79;41.22
19751;BME280;4663;49.120;9.730;2023-06-04T09:31:46;98122.81;;;25.38;41.56
19751;BME280;4663;49.120;9.730;2023-06-04T09:34:13;98152.38;;;25.76;42.25
19751;BME280;4663;49.120;9.730;2023-06-04T09:36:39;98100.75;;;24.88;40.59
19751;BME280;4663;49.120;9.730;2023-06-04T09:39:17;98147.19;;;26.02;41.75
19751;BME280;4663;49.120;9.730;2023-06-04T09:41:43;98131.66;;;25.90;40.54
19751;BME280;4663;49.120;9.730;2023-06-04T09:44:09;98105.34;;;25.45;39.74
19751;BME280;4663;49.120;9.730;2023-06-04T09:46:36;98146.84;;;25.93;41.92
19751;BME280;4663;49.120;9.730;2023-06-04T09:49:03;98139.81;;;26.35;40.90
19751;BME280;4663;49.120;9.730;2023-06-04T09:51:30;98142.56;;;26.35;42.06
19751;BME280;4663;49.120;9.730;2023-06-04T09:53:58;98133.81;;;26.11;41.87
19751;BME280;4663;49.120;9.730;2023-06-04T09:56:24;98152.44;;;27.02;41.55
19751;BME280;4663;49.120;9.730;2023-06-04T09:58:50;98113.22;;;26.13;40.03
19751;BME280;4663;49.120;9.730;2023-06-04T10:01:19;98122.63;;;25.67;41.42
19751;BME280;4663;49.120;9.730;2023-06-04T10:03:47;98128.09;;;26.17;41.13
19751;BME280;4663;49.120;9.730;2023-06-04T10:06:15;98136.84;;;26.42;41.60
19751;BME280;4663;49.120;9.730;2023-06-04T10:08:43;98127.69;;;26.64;40.62
19751;BME280;4663;49.120;9.730;2023-06-04T10:11:11;98146.75;;;26.76;42.01
19751;BME280;4663;49.120;9.730;2023-06-04T10:14:00;98108.84;;;26.50;39.86
19751;BME280;4663;49.120;9.730;2023-06-04T10:16:28;98114.16;;;25.97;40.18
19751;BME280;4663;49.120;9.730;2023-06-04T10:18:56;98121.16;;;25.60;40.37
19751;BME280;4663;49.120;9.730;2023-06-04T10:21:22;98121.50;;;25.63;40.63
19751;BME280;4663;49.120;9.730;2023-06-04T10:23:49;98131.59;;;25.85;41.63
19751;BME280;4663;49.120;9.730;2023-06-04T10:26:16;98120.44;;;26.52;40.16
19751;BME280;4663;49.120;9.730;2023-06-04T10:28:42;98095.53;;;25.99;40.04
19751;BME280;4663;49.120;9.730;2023-06-04T10:31:11;98118.06;;;26.33;40.86
19751;BME280;4663;49.120;9.730;2023-06-04T10:33:38;98124.13;;;26.03;41.60
19751;BME280;4663;49.120;9.730;2023-06-04T10:36:20;98103.28;;;25.12;41.63
19751;BME280;4663;49.120;9.730;2023-06-04T10:38:50;98128.03;;;25.17;42.50
19751;BME280;4663;49.120;9.730;2023-06-04T10:41:17;98137.59;;;24.75;44.11
19751;BME280;4663;49.120;9.730;2023-06-04T10:43:45;98139.28;;;25.38;44.25
19751;BME280;4663;49.120;9.730;2023-06-04T10:46:14;98135.84;;;25.93;42.44
19751;BME280;4663;49.120;9.730;2023-06-04T10:51:12;98142.47;;;25.97;44.02
19751;BME280;4663;49.120;9.730;2023-06-04T10:53:37;98132.41;;;25.36;42.74
19751;BME280;4663;49.120;9.730;2023-06-04T10:56:03;98098.19;;;25.43;40.87
19751;BME280;4663;49.120;9.730;2023-06-04T10:58:32;98100.50;;;25.79;40.89
19751;BME280;4663;49.120;9.730;2023-06-04T11:00:57;98115.19;;;26.18;41.36
19751;BME280;4663;49.120;9.730;2023-06-04T11:03:23;98118.00;;;25.96;42.15
19751;BME280;4663;49.120;9.730;2023-06-04T11:05:49;98112.00;;;25.99;41.31
19751;BME280;4663;49.120;9.730;2023-06-04T11:08:26;98120.47;;;26.25;41.40
19751;BME280;4663;49.120;9.730;2023-06-04T11:10:55;98105.31;;;25.67;41.37
19751;BME280;4663;49.120;9.730;2023-06-04T11:13:24;98095.59;;;24.92;42.06
19751;BME280;4663;49.120;9.730;2023-06-04T11:15:51;98131.09;;;24.99;43.91
19751;BME280;4663;49.120;9.730;2023-06-04T11:18:18;98086.16;;;24.48;41.36
19751;BME280;4663;49.120;9.730;2023-06-04T11:20:45;98088.81;;;24.26;42.18
19751;BME280;4663;49.120;9.730;2023-06-04T11:23:12;98076.88;;;24.32;41.67
19751;BME280;4663;49.120;9.730;2023-06-04T11:25:38;98098.13;;;24.25;42.88
19751;BME280;4663;49.120;9.730;2023-06-04T11:28:04;98092.03;;;24.57;41.63
19751;BME280;4663;49.120;9.730;2023-06-04T11:30:29;98101.38;;;24.73;42.23
19751;BME280;4663;49.120;9.730;2023-06-04T11:33:04;98101.59;;;24.89;42.19
19751;BME280;4663;49.120;9.730;2023-06-04T11:35:31;98096.72;;;24.39;42.47
19751;BME280;4663;49.120;9.730;2023-06-04T11:37:58;98091.47;;;24.21;42.63
19751;BME280;4663;49.120;9.730;2023-06-04T11:40:24;98102.78;;;23.95;43.71
19751;BME280;4663;49.120;9.730;2023-06-04T11:42:51;98109.25;;;24.18;43.71
19751;BME280;4663;49.120;9.730;2023-06-04T11:45:18;98104.69;;;24.24;43.27
19751;BME280;4663;49.120;9.730;2023-06-04T11:47:47;98085.31;;;23.96;42.11
19751;BME280;4663;49.120;9.730;2023-06-04T11:50:12;98092.66;;;24.42;41.72
19751;BME280;4663;49.120;9.730;2023-06-04T11:52:38;98081.84;;;24.35;41.49
19751;BME280;4663;49.120;9.730;2023-06-04T11:55:07;98110.22;;;24.12;44.13
19751;BME280;4663;49.120;9.730;2023-06-04T11:57:34;98082.84;;;24.29;41.69
19751;BME280;4663;49.120;9.730;2023-06-04T12:00:00;98085.84;;;24.79;41.24
19751;BME280;4663;49.120;9.730;2023-06-04T12:02:25;98093.44;;;25.16;41.45
19751;BME280;4663;49.120;9.730;2023-06-04T12:04:51;98105.25;;;25.17;42.60
19751;BME280;4663;49.120;9.730;2023-06-04T12:07:20;98083.69;;;24.64;41.55
19751;BME280;4663;49.120;9.730;2023-06-04T12:09:49;98079.81;;;24.82;40.81
19751;BME280;4663;49.120;9.730;2023-06-04T12:12:21;98068.50;;;23.93;42.04
19751;BME280;4663;49.120;9.730;2023-06-04T12:14:56;98083.25;;;24.55;42.01
19751;BME280;4663;49.120;9.730;2023-06-04T12:17:22;98057.97;;;23.84;42.03
19751;BME280;4663;49.120;9.730;2023-06-04T12:19:49;98071.22;;;24.39;41.42
19751;BME280;4663;49.120;9.730;2023-06-04T12:22:15;98085.28;;;25.22;41.62
19751;BME280;4663;49.120;9.730;2023-06-04T12:24:50;98054.34;;;24.30;40.63
19751;BME280;4663;49.120;9.730;2023-06-04T12:27:20;98065.72;;;24.39;41.98
19751;BME280;4663;49.120;9.730;2023-06-04T12:30:05;98066.47;;;24.34;42.16
19751;BME280;4663;49.120;9.730;2023-06-04T12:32:34;98066.22;;;24.36;41.42
19751;BME280;4663;49.120;9.730;2023-06-04T12:35:00;98057.28;;;24.40;41.56
19751;BME280;4663;49.120;9.730;2023-06-04T12:37:25;98062.09;;;24.33;41.18
19751;BME280;4663;49.120;9.730;2023-06-04T12:39:53;98073.16;;;24.61;41.77
19751;BME280;4663;49.120;9.730;2023-06-04T12:42:19;98068.22;;;24.75;40.84
19751;BME280;4663;49.120;9.730;2023-06-04T12:44:45;98057.41;;;25.30;40.29
19751;BME280;4663;49.120;9.730;2023-06-04T12:47:11;98047.56;;;25.56;38.98
19751;BME280;4663;49.120;9.730;2023-06-04T12:49:37;98064.59;;;25.86;39.95
19751;BME280;4663;49.120;9.730;2023-06-04T12:52:03;98076.22;;;25.93;39.97
19751;BME280;4663;49.120;9.730;2023-06-04T12:54:28;98066.59;;;25.91;39.82
19751;BME280;4663;49.120;9.730;2023-06-04T12:56:55;98051.16;;;25.90;39.62
19751;BME280;4663;49.120;9.730;2023-06-04T12:59:24;98041.19;;;25.51;40.54
19751;BME280;4663;49.120;9.730;2023-06-04T13:01:50;98074.50;;;25.87;41.92
19751;BME280;4663;49.120;9.730;2023-06-04T13:04:16;98075.31;;;26.15;40.93
19751;BME280;4663;49.120;9.730;2023-06-04T13:06:41;98066.16;;;25.49;41.95
19751;BME280;4663;49.120;9.730;2023-06-04T13:09:06;98044.06;;;24.94;40.94
19751;BME280;4663;49.120;9.730;2023-06-04T13:11:41;98058.19;;;26.03;39.74
19751;BME280;4663;49.120;9.730;2023-06-04T13:14:07;98050.19;;;25.74;39.88
19751;BME280;4663;49.120;9.730;2023-06-04T13:16:33;98055.25;;;25.32;41.36